Airfield :
LOGIN :

Register | Disclaimer

   EN    FR    IT 

 










Legend :    VFR   Marginal VFR   IFR   Intensive IFR   Very Intensive IFR
Visi :
Ceiling :
>= 8 km
>= 3000ft
5 to 8 km
1000 to 3000 ft
1500m to 5 km
500 to 1000 ft
800 to 1500m
200 to 500 ft
< 800m
< 200 ft
Symbols :   Thunderstorms  Fog  Heavy snow  Heavy precipitations  Wind > 20 kt
SIGMETs :     Misc.  Thunderstorms  Icing  Turbulence  Mountain Waves  Volcanic Ashes






- Airport Elevation : 1247 ft
- IATA code : PRG


LKPR - Praha Ruzyne

CURRENT METAR :
  • 130430Z VRB02KT 0600 R24/P2000N BCFG SCT001 BKN002 M03/M03 Q0989 TEMPO 1000 BR BKN003

EXPIRED METARs :
  • 130415Z 08004KT 0500 R24/P2000U FZFG SCT001 BKN002 M04/M04 Q0989 RMK REG QNH 0984
  • 130404Z 07005KT 0400 R24/0650D FZFG BKN001 M04/M05 Q0990 RMK REG QNH 0984
  • 130330Z VRB02KT 0300 R24/0400N FZFG BKN001 M03/M04 Q0991 NOSIG
  • 130304Z 05003KT 0500 R24/0450D FZFG BKN001 M04/M04 Q0991 RMK REG QNH 0984
  • 130253Z 07004KT 1200 0700W R24/0800D BR BCFG SCT001 BKN003 M04/M05 Q0991 RMK REG QNH 0989
  • 130230Z 10005KT 5000 BR NSC M03/M04 Q0992 NOSIG
  • 130200Z 13004KT 6000 NSC M02/M03 Q0993 NOSIG

TAF AMD TAF LKPR
Valid from the 13 at 03:00 until the 14 at 06:00 UTC


130305Z 1303/1406 15010KT 0350 FZFG OVC001
TEMPO 1303/1305 0500 FZFG
BECMG 1305/1307 1500 BR BKN003
BECMG 1308/1310 CAVOK
TEMPO 1315/1317 6000 -SN SCT025
BECMG 1317/1320 22015KT BKN025
TEMPO 1320/1406 22017G30KT 7000 -SHSN BKN014



MET'MAP, your aeronautical weather chart ! - Copyright ORBIFLY December 2007 - Disclaimer

ORBIFLY MET'MAP TEAM :

Programming & Development : Alexandra Zaïnal
Concept & original design : Baudouin d'Aumeries
Assistance for programming : Marc-Olivier Méhu
Technical & hardware support : Manuel Goepfert

Contact : metmap@orbifly.com




SOURCES & CREDITS :

   NOAA